This is the latest recevied weather packets stored in our database for station/object VA7NIC-10. If no packets are shown the sender has not sent any weather packets the latest 10 day(s).
| Time | Temp. | Humidity | Pressure | Rain* | Wind** | Luminosity | Snow |
|---|---|---|---|---|---|---|---|
| 1777846022 | 27.78° C | 25% | 1010.8 hPa | 0 mm | - | - | - |
| 1777845122 | 27.22° C | 26% | 1011 hPa | 0 mm | - | - | - |
| 1777844222 | 27.22° C | 28% | 1011.1 hPa | 0 mm | - | - | - |
| 1777843321 | 27.22° C | 30% | 1011.2 hPa | 0 mm | - | - | - |
| 1777842421 | 27.22° C | 31% | 1011.4 hPa | 0 mm | - | - | - |
| 1777840621 | 26.67° C | 31% | 1011.9 hPa | 0 mm | - | - | - |
| 1777839721 | 26.11° C | 37% | 1012.2 hPa | 0 mm | - | - | - |
| 1777838821 | 25.56° C | 40% | 1012.3 hPa | 0 mm | - | - | - |
| 1777837921 | 25.56° C | 37% | 1012.6 hPa | 0 mm | - | - | - |
| 1777837021 | 25.56° C | 39% | 1012.7 hPa | 0 mm | - | - | - |
| 1777835222 | 23.89° C | 42% | 1013 hPa | 0 mm | - | - | - |
| 1777832522 | 22.22° C | 47% | 1013.4 hPa | 0 mm | - | - | - |
| 1777831622 | 21.11° C | 49% | 1013.6 hPa | 0 mm | - | - | - |
| 1777829822 | 19.44° C | 52% | 1013.8 hPa | 0 mm | - | - | - |
| 1777828021 | 17.78° C | 56% | 1014.1 hPa | 0 mm | - | - | - |
| 1777827121 | 17.22° C | 57% | 1014.4 hPa | 0 mm | - | - | - |
| 1777825321 | 15° C | 68% | 1014.6 hPa | 0 mm | - | - | - |
| 1777824421 | 14.44° C | 73% | 1014.7 hPa | 0 mm | - | - | - |
| 1777822621 | 13.33° C | 77% | 1014.9 hPa | 0 mm | - | - | - |
| 1777820822 | 12.22° C | 82% | 1015 hPa | 0 mm | - | - | - |
| 1777819922 | 11.67° C | 83% | 1015 hPa | 0 mm | - | - | - |
| 1777819022 | 11.67° C | 83% | 1014.9 hPa | 0 mm | - | - | - |
| 1777818122 | 11.67° C | 82% | 1014.8 hPa | 0 mm | - | - | - |
| 1777817222 | 11.67° C | 81% | 1014.8 hPa | 0 mm | - | - | - |
| 1777815421 | 11.67° C | 80% | 1014.9 hPa | 0 mm | - | - | - |
* Rain latest hour (hover to see other rain measurements)
** Current wind speed in m/s (hover to see current wind gust speed)